sensor_id;sensor_type;location;lat;lon;timestamp;P1;durP1;ratioP1;P2;durP2;ratioP2
58408;SDS011;44202;52.730;6.470;2022-07-26T00:00:19;13.20;;;2.75;;
58408;SDS011;44202;52.730;6.470;2022-07-26T00:02:46;15.25;;;3.03;;
58408;SDS011;44202;52.730;6.470;2022-07-26T00:05:12;14.02;;;3.03;;
58408;SDS011;44202;52.730;6.470;2022-07-26T00:07:38;15.68;;;3.55;;
58408;SDS011;44202;52.730;6.470;2022-07-26T00:10:04;13.35;;;2.78;;
58408;SDS011;44202;52.730;6.470;2022-07-26T00:12:30;24.15;;;3.20;;
58408;SDS011;44202;52.730;6.470;2022-07-26T00:14:56;17.35;;;3.38;;
58408;SDS011;44202;52.730;6.470;2022-07-26T00:17:22;18.92;;;3.00;;
58408;SDS011;44202;52.730;6.470;2022-07-26T00:19:48;12.60;;;2.50;;
58408;SDS011;44202;52.730;6.470;2022-07-26T00:22:13;21.77;;;3.13;;
58408;SDS011;44202;52.730;6.470;2022-07-26T00:24:58;24.80;;;3.47;;
58408;SDS011;44202;52.730;6.470;2022-07-26T00:27:23;12.52;;;2.97;;
58408;SDS011;44202;52.730;6.470;2022-07-26T00:29:49;18.95;;;3.22;;
58408;SDS011;44202;52.730;6.470;2022-07-26T00:32:15;19.77;;;3.38;;
58408;SDS011;44202;52.730;6.470;2022-07-26T00:34:40;19.50;;;3.22;;
58408;SDS011;44202;52.730;6.470;2022-07-26T00:37:06;15.60;;;3.20;;
58408;SDS011;44202;52.730;6.470;2022-07-26T00:39:32;19.63;;;3.75;;
58408;SDS011;44202;52.730;6.470;2022-07-26T00:41:57;23.65;;;4.20;;
58408;SDS011;44202;52.730;6.470;2022-07-26T00:44:23;16.63;;;2.95;;
58408;SDS011;44202;52.730;6.470;2022-07-26T00:46:49;22.85;;;3.72;;
58408;SDS011;44202;52.730;6.470;2022-07-26T00:49:14;17.33;;;3.47;;
58408;SDS011;44202;52.730;6.470;2022-07-26T00:51:40;18.42;;;3.50;;
58408;SDS011;44202;52.730;6.470;2022-07-26T00:54:06;28.83;;;3.72;;
58408;SDS011;44202;52.730;6.470;2022-07-26T00:56:32;18.75;;;3.20;;
58408;SDS011;44202;52.730;6.470;2022-07-26T00:58:58;17.45;;;3.88;;
58408;SDS011;44202;52.730;6.470;2022-07-26T01:01:25;18.45;;;3.67;;
58408;SDS011;44202;52.730;6.470;2022-07-26T01:03:51;22.73;;;3.90;;
58408;SDS011;44202;52.730;6.470;2022-07-26T01:06:17;19.67;;;4.57;;
58408;SDS011;44202;52.730;6.470;2022-07-26T01:08:44;19.95;;;3.70;;
58408;SDS011;44202;52.730;6.470;2022-07-26T01:11:09;20.73;;;4.22;;
58408;SDS011;44202;52.730;6.470;2022-07-26T01:13:36;22.92;;;3.75;;
58408;SDS011;44202;52.730;6.470;2022-07-26T01:16:02;16.92;;;3.70;;
58408;SDS011;44202;52.730;6.470;2022-07-26T01:18:28;20.88;;;3.90;;
58408;SDS011;44202;52.730;6.470;2022-07-26T01:20:53;18.02;;;3.33;;
58408;SDS011;44202;52.730;6.470;2022-07-26T01:23:21;18.98;;;3.60;;
58408;SDS011;44202;52.730;6.470;2022-07-26T01:25:47;23.88;;;4.10;;
58408;SDS011;44202;52.730;6.470;2022-07-26T01:28:13;18.02;;;3.85;;
58408;SDS011;44202;52.730;6.470;2022-07-26T01:30:38;25.42;;;3.97;;
58408;SDS011;44202;52.730;6.470;2022-07-26T01:33:04;20.92;;;4.20;;
58408;SDS011;44202;52.730;6.470;2022-07-26T01:35:29;25.15;;;4.20;;
58408;SDS011;44202;52.730;6.470;2022-07-26T01:37:55;18.90;;;3.90;;
58408;SDS011;44202;52.730;6.470;2022-07-26T01:40:21;23.60;;;3.90;;
58408;SDS011;44202;52.730;6.470;2022-07-26T01:42:46;19.05;;;3.85;;
58408;SDS011;44202;52.730;6.470;2022-07-26T01:45:12;20.85;;;3.80;;
58408;SDS011;44202;52.730;6.470;2022-07-26T01:47:38;19.23;;;3.88;;
58408;SDS011;44202;52.730;6.470;2022-07-26T01:50:05;25.45;;;5.00;;
58408;SDS011;44202;52.730;6.470;2022-07-26T01:52:32;22.92;;;5.30;;
58408;SDS011;44202;52.730;6.470;2022-07-26T01:54:59;26.15;;;4.10;;
58408;SDS011;44202;52.730;6.470;2022-07-26T01:57:25;22.50;;;4.28;;
58408;SDS011;44202;52.730;6.470;2022-07-26T01:59:51;21.60;;;4.50;;
58408;SDS011;44202;52.730;6.470;2022-07-26T02:02:16;16.58;;;4.40;;
58408;SDS011;44202;52.730;6.470;2022-07-26T02:04:42;31.95;;;4.82;;
58408;SDS011;44202;52.730;6.470;2022-07-26T02:07:27;24.02;;;4.90;;
58408;SDS011;44202;52.730;6.470;2022-07-26T02:12:19;22.52;;;4.75;;
58408;SDS011;44202;52.730;6.470;2022-07-26T02:14:45;20.35;;;4.55;;
58408;SDS011;44202;52.730;6.470;2022-07-26T02:17:10;25.73;;;4.72;;
58408;SDS011;44202;52.730;6.470;2022-07-26T02:19:36;17.33;;;3.67;;
58408;SDS011;44202;52.730;6.470;2022-07-26T02:22:04;22.67;;;4.50;;
58408;SDS011;44202;52.730;6.470;2022-07-26T02:24:30;19.23;;;4.32;;
58408;SDS011;44202;52.730;6.470;2022-07-26T02:26:56;19.92;;;3.72;;
58408;SDS011;44202;52.730;6.470;2022-07-26T02:29:23;13.52;;;2.80;;
58408;SDS011;44202;52.730;6.470;2022-07-26T02:31:49;26.20;;;4.82;;
58408;SDS011;44202;52.730;6.470;2022-07-26T02:34:14;20.27;;;3.95;;
58408;SDS011;44202;52.730;6.470;2022-07-26T02:36:41;25.95;;;4.93;;
58408;SDS011;44202;52.730;6.470;2022-07-26T02:39:06;23.13;;;4.35;;
58408;SDS011;44202;52.730;6.470;2022-07-26T02:41:32;18.55;;;4.55;;
58408;SDS011;44202;52.730;6.470;2022-07-26T02:43:58;17.35;;;3.47;;
58408;SDS011;44202;52.730;6.470;2022-07-26T02:46:23;16.58;;;4.00;;
58408;SDS011;44202;52.730;6.470;2022-07-26T02:48:49;21.17;;;4.30;;
58408;SDS011;44202;52.730;6.470;2022-07-26T02:51:15;20.42;;;3.83;;
58408;SDS011;44202;52.730;6.470;2022-07-26T02:53:40;25.65;;;4.05;;
58408;SDS011;44202;52.730;6.470;2022-07-26T02:56:06;16.55;;;3.53;;
58408;SDS011;44202;52.730;6.470;2022-07-26T02:58:32;19.75;;;4.10;;
58408;SDS011;44202;52.730;6.470;2022-07-26T03:00:58;16.17;;;4.13;;
58408;SDS011;44202;52.730;6.470;2022-07-26T03:03:24;18.95;;;3.78;;
58408;SDS011;44202;52.730;6.470;2022-07-26T03:05:49;15.60;;;3.58;;
58408;SDS011;44202;52.730;6.470;2022-07-26T03:08:15;13.90;;;3.38;;
58408;SDS011;44202;52.730;6.470;2022-07-26T03:10:40;59.97;;;7.28;;
58408;SDS011;44202;52.730;6.470;2022-07-26T03:13:06;21.13;;;5.07;;
58408;SDS011;44202;52.730;6.470;2022-07-26T03:15:32;24.33;;;5.25;;
58408;SDS011;44202;52.730;6.470;2022-07-26T03:17:58;23.77;;;6.45;;
58408;SDS011;44202;52.730;6.470;2022-07-26T03:20:23;28.50;;;6.82;;
58408;SDS011;44202;52.730;6.470;2022-07-26T03:22:49;19.35;;;6.07;;
58408;SDS011;44202;52.730;6.470;2022-07-26T03:25:15;25.08;;;7.28;;
58408;SDS011;44202;52.730;6.470;2022-07-26T03:27:41;27.20;;;7.13;;
58408;SDS011;44202;52.730;6.470;2022-07-26T03:30:07;17.65;;;5.60;;
58408;SDS011;44202;52.730;6.470;2022-07-26T03:32:33;30.08;;;8.55;;
58408;SDS011;44202;52.730;6.470;2022-07-26T03:34:59;19.45;;;5.70;;
58408;SDS011;44202;52.730;6.470;2022-07-26T03:37:25;24.65;;;8.20;;
58408;SDS011;44202;52.730;6.470;2022-07-26T03:39:50;22.02;;;8.55;;
58408;SDS011;44202;52.730;6.470;2022-07-26T03:42:16;22.77;;;7.03;;
58408;SDS011;44202;52.730;6.470;2022-07-26T03:44:42;12.18;;;5.20;;
58408;SDS011;44202;52.730;6.470;2022-07-26T03:47:07;17.23;;;5.10;;
58408;SDS011;44202;52.730;6.470;2022-07-26T03:49:33;10.63;;;4.60;;
58408;SDS011;44202;52.730;6.470;2022-07-26T03:51:59;11.65;;;4.47;;
58408;SDS011;44202;52.730;6.470;2022-07-26T03:54:24;10.30;;;4.90;;
58408;SDS011;44202;52.730;6.470;2022-07-26T03:56:50;10.75;;;4.88;;
58408;SDS011;44202;52.730;6.470;2022-07-26T03:59:16;15.88;;;5.78;;
58408;SDS011;44202;52.730;6.470;2022-07-26T04:01:43;10.93;;;4.28;;
58408;SDS011;44202;52.730;6.470;2022-07-26T04:04:11;10.90;;;5.57;;
58408;SDS011;44202;52.730;6.470;2022-07-26T04:06:38;9.15;;;5.07;;
58408;SDS011;44202;52.730;6.470;2022-07-26T04:09:04;14.48;;;5.57;;
58408;SDS011;44202;52.730;6.470;2022-07-26T04:11:30;13.95;;;5.38;;
58408;SDS011;44202;52.730;6.470;2022-07-26T04:13:56;15.40;;;5.75;;
58408;SDS011;44202;52.730;6.470;2022-07-26T04:16:22;8.73;;;4.65;;
58408;SDS011;44202;52.730;6.470;2022-07-26T04:18:48;16.67;;;5.63;;
58408;SDS011;44202;52.730;6.470;2022-07-26T04:21:14;13.95;;;5.55;;
58408;SDS011;44202;52.730;6.470;2022-07-26T04:23:40;16.17;;;5.50;;
58408;SDS011;44202;52.730;6.470;2022-07-26T04:26:05;11.32;;;4.13;;
58408;SDS011;44202;52.730;6.470;2022-07-26T04:28:31;16.33;;;5.65;;
58408;SDS011;44202;52.730;6.470;2022-07-26T04:30:57;10.82;;;4.07;;
58408;SDS011;44202;52.730;6.470;2022-07-26T04:33:24;11.07;;;4.53;;
58408;SDS011;44202;52.730;6.470;2022-07-26T04:35:50;11.20;;;4.10;;
58408;SDS011;44202;52.730;6.470;2022-07-26T04:38:16;14.38;;;4.57;;
58408;SDS011;44202;52.730;6.470;2022-07-26T04:40:41;17.67;;;5.15;;
58408;SDS011;44202;52.730;6.470;2022-07-26T04:43:07;12.10;;;3.85;;
58408;SDS011;44202;52.730;6.470;2022-07-26T04:45:33;14.43;;;4.13;;
58408;SDS011;44202;52.730;6.470;2022-07-26T04:47:59;18.73;;;5.38;;
58408;SDS011;44202;52.730;6.470;2022-07-26T04:50:25;21.48;;;5.45;;
58408;SDS011;44202;52.730;6.470;2022-07-26T04:52:54;12.43;;;4.60;;
58408;SDS011;44202;52.730;6.470;2022-07-26T04:55:20;15.93;;;5.05;;
58408;SDS011;44202;52.730;6.470;2022-07-26T04:57:47;16.58;;;4.85;;
58408;SDS011;44202;52.730;6.470;2022-07-26T05:00:14;13.85;;;4.15;;
58408;SDS011;44202;52.730;6.470;2022-07-26T05:02:41;12.65;;;4.10;;
58408;SDS011;44202;52.730;6.470;2022-07-26T05:05:07;12.02;;;3.55;;
58408;SDS011;44202;52.730;6.470;2022-07-26T05:07:42;13.77;;;3.70;;
58408;SDS011;44202;52.730;6.470;2022-07-26T05:10:10;15.77;;;4.93;;
58408;SDS011;44202;52.730;6.470;2022-07-26T05:12:37;16.33;;;4.40;;
58408;SDS011;44202;52.730;6.470;2022-07-26T05:15:04;8.43;;;3.30;;
58408;SDS011;44202;52.730;6.470;2022-07-26T05:17:30;12.38;;;3.90;;
58408;SDS011;44202;52.730;6.470;2022-07-26T05:19:56;17.92;;;3.38;;
58408;SDS011;44202;52.730;6.470;2022-07-26T05:22:22;11.65;;;3.50;;
58408;SDS011;44202;52.730;6.470;2022-07-26T05:24:47;10.80;;;4.32;;
58408;SDS011;44202;52.730;6.470;2022-07-26T05:27:13;8.88;;;3.25;;
58408;SDS011;44202;52.730;6.470;2022-07-26T05:29:38;7.88;;;2.55;;
58408;SDS011;44202;52.730;6.470;2022-07-26T05:32:04;12.10;;;3.15;;
58408;SDS011;44202;52.730;6.470;2022-07-26T05:34:30;13.43;;;3.00;;
58408;SDS011;44202;52.730;6.470;2022-07-26T05:36:56;11.32;;;3.17;;
58408;SDS011;44202;52.730;6.470;2022-07-26T05:39:21;12.07;;;3.13;;
58408;SDS011;44202;52.730;6.470;2022-07-26T05:41:47;9.98;;;2.55;;
58408;SDS011;44202;52.730;6.470;2022-07-26T05:44:13;13.90;;;1.95;;
58408;SDS011;44202;52.730;6.470;2022-07-26T05:46:39;7.50;;;2.40;;
58408;SDS011;44202;52.730;6.470;2022-07-26T05:49:05;14.77;;;2.40;;
58408;SDS011;44202;52.730;6.470;2022-07-26T05:51:31;8.48;;;2.03;;
58408;SDS011;44202;52.730;6.470;2022-07-26T05:53:57;11.10;;;2.10;;
58408;SDS011;44202;52.730;6.470;2022-07-26T05:56:23;8.50;;;2.10;;
58408;SDS011;44202;52.730;6.470;2022-07-26T05:58:49;12.48;;;1.80;;
58408;SDS011;44202;52.730;6.470;2022-07-26T06:01:15;8.70;;;1.63;;
58408;SDS011;44202;52.730;6.470;2022-07-26T06:03:41;8.18;;;1.65;;
58408;SDS011;44202;52.730;6.470;2022-07-26T06:06:07;8.60;;;1.15;;
58408;SDS011;44202;52.730;6.470;2022-07-26T06:08:32;9.93;;;1.17;;
58408;SDS011;44202;52.730;6.470;2022-07-26T06:10:59;9.88;;;1.67;;
58408;SDS011;44202;52.730;6.470;2022-07-26T06:13:25;9.20;;;1.17;;
58408;SDS011;44202;52.730;6.470;2022-07-26T06:15:51;6.47;;;1.23;;
58408;SDS011;44202;52.730;6.470;2022-07-26T06:18:17;6.47;;;1.10;;
58408;SDS011;44202;52.730;6.470;2022-07-26T06:20:43;8.70;;;1.10;;
58408;SDS011;44202;52.730;6.470;2022-07-26T06:23:09;6.53;;;1.02;;
58408;SDS011;44202;52.730;6.470;2022-07-26T06:25:35;4.10;;;0.90;;
58408;SDS011;44202;52.730;6.470;2022-07-26T06:28:02;5.60;;;1.00;;
58408;SDS011;44202;52.730;6.470;2022-07-26T06:30:29;3.97;;;0.80;;
58408;SDS011;44202;52.730;6.470;2022-07-26T06:32:54;8.35;;;1.35;;
58408;SDS011;44202;52.730;6.470;2022-07-26T06:35:20;5.90;;;1.42;;
58408;SDS011;44202;52.730;6.470;2022-07-26T06:37:48;5.63;;;0.90;;
58408;SDS011;44202;52.730;6.470;2022-07-26T06:40:14;10.32;;;1.15;;
58408;SDS011;44202;52.730;6.470;2022-07-26T06:42:40;7.85;;;1.08;;
58408;SDS011;44202;52.730;6.470;2022-07-26T06:45:06;4.90;;;1.13;;
58408;SDS011;44202;52.730;6.470;2022-07-26T06:47:32;8.10;;;1.25;;
58408;SDS011;44202;52.730;6.470;2022-07-26T06:49:59;7.85;;;1.38;;
58408;SDS011;44202;52.730;6.470;2022-07-26T06:52:25;3.65;;;0.80;;
58408;SDS011;44202;52.730;6.470;2022-07-26T06:54:51;4.90;;;0.90;;
58408;SDS011;44202;52.730;6.470;2022-07-26T06:57:16;5.05;;;1.17;;
58408;SDS011;44202;52.730;6.470;2022-07-26T06:59:42;6.20;;;0.90;;
58408;SDS011;44202;52.730;6.470;2022-07-26T07:02:08;4.10;;;0.80;;
58408;SDS011;44202;52.730;6.470;2022-07-26T07:04:33;4.88;;;0.80;;
58408;SDS011;44202;52.730;6.470;2022-07-26T07:06:59;3.58;;;0.88;;
58408;SDS011;44202;52.730;6.470;2022-07-26T07:09:29;6.82;;;1.00;;
58408;SDS011;44202;52.730;6.470;2022-07-26T07:11:59;5.53;;;1.08;;
58408;SDS011;44202;52.730;6.470;2022-07-26T07:14:27;6.88;;;1.30;;
58408;SDS011;44202;52.730;6.470;2022-07-26T07:16:52;7.90;;;0.85;;
58408;SDS011;44202;52.730;6.470;2022-07-26T07:19:19;4.90;;;0.90;;
58408;SDS011;44202;52.730;6.470;2022-07-26T07:21:46;5.18;;;0.90;;
58408;SDS011;44202;52.730;6.470;2022-07-26T07:24:12;4.57;;;0.60;;
58408;SDS011;44202;52.730;6.470;2022-07-26T07:26:37;3.60;;;0.50;;
58408;SDS011;44202;52.730;6.470;2022-07-26T07:29:03;7.28;;;0.85;;
58408;SDS011;44202;52.730;6.470;2022-07-26T07:31:29;4.18;;;0.85;;
58408;SDS011;44202;52.730;6.470;2022-07-26T07:33:55;3.85;;;0.80;;
58408;SDS011;44202;52.730;6.470;2022-07-26T07:36:20;4.75;;;0.93;;
58408;SDS011;44202;52.730;6.470;2022-07-26T07:38:46;6.22;;;0.90;;
58408;SDS011;44202;52.730;6.470;2022-07-26T07:41:13;3.88;;;0.65;;
58408;SDS011;44202;52.730;6.470;2022-07-26T07:43:38;4.03;;;0.93;;
58408;SDS011;44202;52.730;6.470;2022-07-26T07:46:04;6.75;;;1.25;;
58408;SDS011;44202;52.730;6.470;2022-07-26T07:48:30;2.90;;;0.60;;
58408;SDS011;44202;52.730;6.470;2022-07-26T07:50:55;4.70;;;0.98;;
58408;SDS011;44202;52.730;6.470;2022-07-26T07:53:21;5.85;;;0.90;;
58408;SDS011;44202;52.730;6.470;2022-07-26T07:55:47;3.70;;;0.77;;
58408;SDS011;44202;52.730;6.470;2022-07-26T07:58:13;6.00;;;0.70;;
58408;SDS011;44202;52.730;6.470;2022-07-26T08:00:40;5.22;;;0.70;;
58408;SDS011;44202;52.730;6.470;2022-07-26T08:03:06;2.50;;;0.70;;
58408;SDS011;44202;52.730;6.470;2022-07-26T08:05:32;3.25;;;0.70;;
58408;SDS011;44202;52.730;6.470;2022-07-26T08:07:58;4.85;;;1.20;;
58408;SDS011;44202;52.730;6.470;2022-07-26T08:10:23;3.08;;;0.68;;
58408;SDS011;44202;52.730;6.470;2022-07-26T08:12:49;6.93;;;0.60;;
58408;SDS011;44202;52.730;6.470;2022-07-26T08:15:15;4.65;;;0.70;;
58408;SDS011;44202;52.730;6.470;2022-07-26T08:17:40;3.40;;;0.68;;
58408;SDS011;44202;52.730;6.470;2022-07-26T08:20:06;3.08;;;0.57;;
58408;SDS011;44202;52.730;6.470;2022-07-26T08:22:32;4.78;;;0.70;;
58408;SDS011;44202;52.730;6.470;2022-07-26T08:24:58;3.15;;;0.57;;
58408;SDS011;44202;52.730;6.470;2022-07-26T08:30:09;3.42;;;0.63;;
58408;SDS011;44202;52.730;6.470;2022-07-26T08:32:35;3.30;;;0.60;;
58408;SDS011;44202;52.730;6.470;2022-07-26T08:35:00;5.18;;;0.82;;
58408;SDS011;44202;52.730;6.470;2022-07-26T08:37:26;3.75;;;0.90;;
58408;SDS011;44202;52.730;6.470;2022-07-26T08:39:52;3.55;;;0.50;;
58408;SDS011;44202;52.730;6.470;2022-07-26T08:42:18;5.28;;;0.70;;
58408;SDS011;44202;52.730;6.470;2022-07-26T08:44:46;4.50;;;0.90;;
58408;SDS011;44202;52.730;6.470;2022-07-26T08:47:13;2.65;;;0.60;;
58408;SDS011;44202;52.730;6.470;2022-07-26T08:49:41;4.75;;;0.75;;
58408;SDS011;44202;52.730;6.470;2022-07-26T08:52:07;6.47;;;0.93;;
58408;SDS011;44202;52.730;6.470;2022-07-26T08:54:35;3.35;;;0.70;;
58408;SDS011;44202;52.730;6.470;2022-07-26T08:57:01;4.22;;;0.70;;
58408;SDS011;44202;52.730;6.470;2022-07-26T08:59:27;3.33;;;0.57;;
58408;SDS011;44202;52.730;6.470;2022-07-26T09:02:02;4.60;;;0.70;;
58408;SDS011;44202;52.730;6.470;2022-07-26T09:04:39;6.35;;;0.73;;
58408;SDS011;44202;52.730;6.470;2022-07-26T09:07:12;7.60;;;0.90;;
58408;SDS011;44202;52.730;6.470;2022-07-26T09:12:29;6.47;;;0.93;;
58408;SDS011;44202;52.730;6.470;2022-07-26T09:14:56;7.50;;;0.80;;
58408;SDS011;44202;52.730;6.470;2022-07-26T09:17:23;3.78;;;0.70;;
58408;SDS011;44202;52.730;6.470;2022-07-26T09:25:23;7.13;;;1.33;;
58408;SDS011;44202;52.730;6.470;2022-07-26T09:27:50;4.32;;;1.10;;
58408;SDS011;44202;52.730;6.470;2022-07-26T09:30:16;5.55;;;1.80;;
58408;SDS011;44202;52.730;6.470;2022-07-26T09:32:54;3.55;;;0.70;;
58408;SDS011;44202;52.730;6.470;2022-07-26T09:35:32;6.05;;;1.10;;
58408;SDS011;44202;52.730;6.470;2022-07-26T09:38:00;4.15;;;0.90;;
58408;SDS011;44202;52.730;6.470;2022-07-26T09:40:32;5.57;;;0.77;;
58408;SDS011;44202;52.730;6.470;2022-07-26T09:43:03;4.93;;;0.90;;
58408;SDS011;44202;52.730;6.470;2022-07-26T09:45:30;6.20;;;1.15;;
58408;SDS011;44202;52.730;6.470;2022-07-26T09:47:57;4.38;;;1.33;;
58408;SDS011;44202;52.730;6.470;2022-07-26T09:50:27;4.00;;;1.00;;
58408;SDS011;44202;52.730;6.470;2022-07-26T09:52:59;7.38;;;1.35;;
58408;SDS011;44202;52.730;6.470;2022-07-26T09:58:12;3.90;;;0.90;;
58408;SDS011;44202;52.730;6.470;2022-07-26T10:03:05;5.35;;;0.90;;
58408;SDS011;44202;52.730;6.470;2022-07-26T10:05:31;3.35;;;0.70;;
58408;SDS011;44202;52.730;6.470;2022-07-26T10:07:58;3.30;;;0.82;;
58408;SDS011;44202;52.730;6.470;2022-07-26T10:10:29;6.93;;;1.00;;
58408;SDS011;44202;52.730;6.470;2022-07-26T10:16:28;5.35;;;0.90;;
58408;SDS011;44202;52.730;6.470;2022-07-26T10:18:55;4.20;;;0.80;;
58408;SDS011;44202;52.730;6.470;2022-07-26T10:28:55;4.78;;;1.33;;
58408;SDS011;44202;52.730;6.470;2022-07-26T10:31:44;7.28;;;1.00;;
58408;SDS011;44202;52.730;6.470;2022-07-26T10:34:35;8.68;;;1.30;;
58408;SDS011;44202;52.730;6.470;2022-07-26T10:37:03;5.93;;;0.98;;
58408;SDS011;44202;52.730;6.470;2022-07-26T10:39:30;8.05;;;1.33;;
58408;SDS011;44202;52.730;6.470;2022-07-26T10:41:56;8.07;;;1.40;;
58408;SDS011;44202;52.730;6.470;2022-07-26T10:49:33;8.10;;;1.55;;
58408;SDS011;44202;52.730;6.470;2022-07-26T10:52:11;10.35;;;1.67;;
58408;SDS011;44202;52.730;6.470;2022-07-26T10:57:27;11.05;;;2.22;;
58408;SDS011;44202;52.730;6.470;2022-07-26T10:59:54;7.10;;;1.50;;
58408;SDS011;44202;52.730;6.470;2022-07-26T11:02:22;10.35;;;1.60;;
58408;SDS011;44202;52.730;6.470;2022-07-26T11:05:06;10.23;;;1.85;;
58408;SDS011;44202;52.730;6.470;2022-07-26T11:08:13;9.35;;;1.77;;
58408;SDS011;44202;52.730;6.470;2022-07-26T11:10:39;11.80;;;1.80;;
58408;SDS011;44202;52.730;6.470;2022-07-26T11:13:14;10.65;;;1.80;;
58408;SDS011;44202;52.730;6.470;2022-07-26T11:15:41;10.60;;;1.80;;
58408;SDS011;44202;52.730;6.470;2022-07-26T11:18:12;10.00;;;1.83;;
58408;SDS011;44202;52.730;6.470;2022-07-26T11:20:39;8.18;;;1.80;;
58408;SDS011;44202;52.730;6.470;2022-07-26T11:23:26;10.38;;;1.60;;
58408;SDS011;44202;52.730;6.470;2022-07-26T11:25:58;12.50;;;2.00;;
58408;SDS011;44202;52.730;6.470;2022-07-26T11:28:26;8.23;;;1.40;;
58408;SDS011;44202;52.730;6.470;2022-07-26T11:30:56;11.48;;;2.15;;
58408;SDS011;44202;52.730;6.470;2022-07-26T11:33:37;7.30;;;1.45;;
58408;SDS011;44202;52.730;6.470;2022-07-26T11:36:05;10.18;;;1.58;;
58408;SDS011;44202;52.730;6.470;2022-07-26T11:38:44;11.57;;;1.73;;
58408;SDS011;44202;52.730;6.470;2022-07-26T11:41:12;15.30;;;2.13;;
58408;SDS011;44202;52.730;6.470;2022-07-26T11:43:39;12.38;;;1.60;;
58408;SDS011;44202;52.730;6.470;2022-07-26T11:46:06;6.85;;;1.65;;
58408;SDS011;44202;52.730;6.470;2022-07-26T11:48:31;6.53;;;1.48;;
58408;SDS011;44202;52.730;6.470;2022-07-26T11:51:10;7.90;;;1.67;;
58408;SDS011;44202;52.730;6.470;2022-07-26T11:53:37;9.57;;;1.75;;
58408;SDS011;44202;52.730;6.470;2022-07-26T11:56:10;13.13;;;2.17;;
58408;SDS011;44202;52.730;6.470;2022-07-26T11:58:38;7.93;;;1.67;;
58408;SDS011;44202;52.730;6.470;2022-07-26T12:01:05;8.57;;;1.27;;
58408;SDS011;44202;52.730;6.470;2022-07-26T12:03:38;8.40;;;1.73;;
58408;SDS011;44202;52.730;6.470;2022-07-26T12:06:09;11.52;;;1.70;;
58408;SDS011;44202;52.730;6.470;2022-07-26T12:11:12;6.43;;;1.45;;
58408;SDS011;44202;52.730;6.470;2022-07-26T12:18:59;6.70;;;1.48;;
58408;SDS011;44202;52.730;6.470;2022-07-26T12:27:13;4.93;;;1.40;;
58408;SDS011;44202;52.730;6.470;2022-07-26T12:29:47;9.23;;;1.20;;
58408;SDS011;44202;52.730;6.470;2022-07-26T12:32:21;11.50;;;1.80;;
58408;SDS011;44202;52.730;6.470;2022-07-26T12:37:20;7.15;;;1.23;;
58408;SDS011;44202;52.730;6.470;2022-07-26T12:39:59;5.90;;;1.35;;
58408;SDS011;44202;52.730;6.470;2022-07-26T12:42:29;8.30;;;1.60;;
58408;SDS011;44202;52.730;6.470;2022-07-26T12:44:56;6.57;;;1.40;;
58408;SDS011;44202;52.730;6.470;2022-07-26T12:47:28;8.63;;;1.33;;
58408;SDS011;44202;52.730;6.470;2022-07-26T12:52:19;6.47;;;1.38;;
58408;SDS011;44202;52.730;6.470;2022-07-26T12:54:47;4.78;;;0.98;;
58408;SDS011;44202;52.730;6.470;2022-07-26T12:57:14;4.53;;;0.98;;
58408;SDS011;44202;52.730;6.470;2022-07-26T12:59:41;6.95;;;1.02;;
58408;SDS011;44202;52.730;6.470;2022-07-26T13:02:07;9.20;;;1.05;;
58408;SDS011;44202;52.730;6.470;2022-07-26T13:04:33;4.95;;;1.10;;
58408;SDS011;44202;52.730;6.470;2022-07-26T13:07:02;6.57;;;1.10;;
58408;SDS011;44202;52.730;6.470;2022-07-26T13:09:28;7.32;;;1.42;;
58408;SDS011;44202;52.730;6.470;2022-07-26T13:11:54;4.75;;;0.93;;
58408;SDS011;44202;52.730;6.470;2022-07-26T13:14:20;3.72;;;1.02;;
58408;SDS011;44202;52.730;6.470;2022-07-26T13:16:46;6.63;;;0.90;;
58408;SDS011;44202;52.730;6.470;2022-07-26T13:19:12;9.52;;;1.38;;
58408;SDS011;44202;52.730;6.470;2022-07-26T13:21:37;4.90;;;0.80;;
58408;SDS011;44202;52.730;6.470;2022-07-26T13:24:03;5.95;;;1.10;;
58408;SDS011;44202;52.730;6.470;2022-07-26T13:26:29;4.65;;;1.38;;
58408;SDS011;44202;52.730;6.470;2022-07-26T13:28:54;6.13;;;1.10;;
58408;SDS011;44202;52.730;6.470;2022-07-26T13:31:21;4.88;;;1.05;;
58408;SDS011;44202;52.730;6.470;2022-07-26T13:33:47;5.90;;;1.05;;
58408;SDS011;44202;52.730;6.470;2022-07-26T13:36:12;5.82;;;0.93;;
58408;SDS011;44202;52.730;6.470;2022-07-26T13:38:38;5.05;;;0.95;;
58408;SDS011;44202;52.730;6.470;2022-07-26T13:41:04;5.88;;;0.88;;
58408;SDS011;44202;52.730;6.470;2022-07-26T13:43:30;5.15;;;0.85;;
58408;SDS011;44202;52.730;6.470;2022-07-26T13:45:56;7.45;;;1.42;;
58408;SDS011;44202;52.730;6.470;2022-07-26T13:48:22;6.32;;;1.20;;
58408;SDS011;44202;52.730;6.470;2022-07-26T13:50:48;5.50;;;1.20;;
58408;SDS011;44202;52.730;6.470;2022-07-26T13:53:14;5.35;;;0.88;;
58408;SDS011;44202;52.730;6.470;2022-07-26T13:55:40;6.10;;;1.38;;
58408;SDS011;44202;52.730;6.470;2022-07-26T13:58:05;3.25;;;0.98;;
58408;SDS011;44202;52.730;6.470;2022-07-26T14:00:31;8.70;;;1.13;;
58408;SDS011;44202;52.730;6.470;2022-07-26T14:02:57;6.70;;;1.10;;
58408;SDS011;44202;52.730;6.470;2022-07-26T14:05:24;12.82;;;1.42;;
58408;SDS011;44202;52.730;6.470;2022-07-26T14:07:50;5.18;;;1.10;;
58408;SDS011;44202;52.730;6.470;2022-07-26T14:10:17;4.30;;;0.95;;
58408;SDS011;44202;52.730;6.470;2022-07-26T14:12:44;5.38;;;1.17;;
58408;SDS011;44202;52.730;6.470;2022-07-26T14:15:09;5.88;;;1.05;;
58408;SDS011;44202;52.730;6.470;2022-07-26T14:17:35;6.50;;;1.00;;
58408;SDS011;44202;52.730;6.470;2022-07-26T14:20:02;4.00;;;0.80;;
58408;SDS011;44202;52.730;6.470;2022-07-26T14:22:28;6.25;;;1.48;;
58408;SDS011;44202;52.730;6.470;2022-07-26T14:24:54;8.00;;;1.42;;
58408;SDS011;44202;52.730;6.470;2022-07-26T14:27:20;4.25;;;1.13;;
58408;SDS011;44202;52.730;6.470;2022-07-26T14:29:45;5.38;;;1.00;;
58408;SDS011;44202;52.730;6.470;2022-07-26T14:32:11;8.73;;;1.00;;
58408;SDS011;44202;52.730;6.470;2022-07-26T14:34:38;4.88;;;1.10;;
58408;SDS011;44202;52.730;6.470;2022-07-26T14:37:04;6.13;;;0.95;;
58408;SDS011;44202;52.730;6.470;2022-07-26T14:39:29;4.78;;;1.10;;
58408;SDS011;44202;52.730;6.470;2022-07-26T14:41:55;8.88;;;1.27;;
58408;SDS011;44202;52.730;6.470;2022-07-26T14:44:21;3.08;;;0.93;;
58408;SDS011;44202;52.730;6.470;2022-07-26T14:46:46;6.55;;;1.40;;
58408;SDS011;44202;52.730;6.470;2022-07-26T14:49:12;4.85;;;0.93;;
58408;SDS011;44202;52.730;6.470;2022-07-26T14:51:38;4.50;;;0.85;;
58408;SDS011;44202;52.730;6.470;2022-07-26T14:54:04;4.25;;;1.17;;
58408;SDS011;44202;52.730;6.470;2022-07-26T14:56:29;5.93;;;1.40;;
58408;SDS011;44202;52.730;6.470;2022-07-26T14:58:55;7.90;;;1.25;;
58408;SDS011;44202;52.730;6.470;2022-07-26T15:01:21;5.05;;;1.38;;
58408;SDS011;44202;52.730;6.470;2022-07-26T15:03:47;6.45;;;0.82;;
58408;SDS011;44202;52.730;6.470;2022-07-26T15:06:14;5.55;;;1.33;;
58408;SDS011;44202;52.730;6.470;2022-07-26T15:08:40;6.85;;;1.30;;
58408;SDS011;44202;52.730;6.470;2022-07-26T15:11:06;3.72;;;1.08;;
58408;SDS011;44202;52.730;6.470;2022-07-26T15:13:32;5.45;;;1.10;;
58408;SDS011;44202;52.730;6.470;2022-07-26T15:15:58;4.38;;;1.08;;
58408;SDS011;44202;52.730;6.470;2022-07-26T15:18:24;3.63;;;0.82;;
58408;SDS011;44202;52.730;6.470;2022-07-26T15:20:50;4.05;;;0.80;;
58408;SDS011;44202;52.730;6.470;2022-07-26T15:23:16;8.80;;;1.15;;
58408;SDS011;44202;52.730;6.470;2022-07-26T15:25:42;8.40;;;1.63;;
58408;SDS011;44202;52.730;6.470;2022-07-26T15:28:08;5.65;;;1.10;;
58408;SDS011;44202;52.730;6.470;2022-07-26T15:30:34;5.10;;;0.90;;
58408;SDS011;44202;52.730;6.470;2022-07-26T15:33:01;3.63;;;0.98;;
58408;SDS011;44202;52.730;6.470;2022-07-26T15:35:27;4.85;;;1.20;;